sensor_id;sensor_type;location;lat;lon;timestamp;pressure;altitude;pressure_sealevel;temperature;humidity
48204;BME280;33994;50.998;5.864;2023-07-13T00:00:13;100982.81;;;17.72;58.43
48204;BME280;33994;50.998;5.864;2023-07-13T00:03:16;100981.88;;;17.73;58.32
48204;BME280;33994;50.998;5.864;2023-07-13T00:06:19;100979.31;;;17.71;58.36
48204;BME280;33994;50.998;5.864;2023-07-13T00:09:23;100974.94;;;17.69;58.53
48204;BME280;33994;50.998;5.864;2023-07-13T00:12:27;100977.91;;;17.61;58.89
48204;BME280;33994;50.998;5.864;2023-07-13T00:15:33;100977.25;;;17.56;59.46
48204;BME280;33994;50.998;5.864;2023-07-13T00:18:36;100984.53;;;17.51;59.52
48204;BME280;33994;50.998;5.864;2023-07-13T00:21:40;100981.19;;;17.46;59.89
48204;BME280;33994;50.998;5.864;2023-07-13T00:24:43;100982.13;;;17.45;59.96
48204;BME280;33994;50.998;5.864;2023-07-13T00:27:47;100974.19;;;17.45;59.88
48204;BME280;33994;50.998;5.864;2023-07-13T00:30:52;100976.00;;;17.44;60.18
48204;BME280;33994;50.998;5.864;2023-07-13T00:33:55;100978.56;;;17.46;60.50
48204;BME280;33994;50.998;5.864;2023-07-13T00:36:59;100979.41;;;17.46;60.56
48204;BME280;33994;50.998;5.864;2023-07-13T00:40:02;100990.25;;;17.40;61.09
48204;BME280;33994;50.998;5.864;2023-07-13T00:43:09;100984.13;;;17.40;61.42
48204;BME280;33994;50.998;5.864;2023-07-13T00:46:22;100981.50;;;17.38;61.52
48204;BME280;33994;50.998;5.864;2023-07-13T00:49:28;100986.88;;;17.37;61.50
48204;BME280;33994;50.998;5.864;2023-07-13T00:52:35;100976.31;;;17.37;61.69
48204;BME280;33994;50.998;5.864;2023-07-13T00:55:39;100980.53;;;17.41;61.68
48204;BME280;33994;50.998;5.864;2023-07-13T00:58:43;100980.53;;;17.41;61.89
48204;BME280;33994;50.998;5.864;2023-07-13T01:01:47;100981.72;;;17.34;62.00
48204;BME280;33994;50.998;5.864;2023-07-13T01:04:51;100987.31;;;17.26;62.33
48204;BME280;33994;50.998;5.864;2023-07-13T01:07:54;100985.78;;;17.20;62.64
48204;BME280;33994;50.998;5.864;2023-07-13T01:10:57;100982.31;;;17.18;62.75
48204;BME280;33994;50.998;5.864;2023-07-13T01:14:01;100978.00;;;17.16;62.77
48204;BME280;33994;50.998;5.864;2023-07-13T01:17:07;100986.13;;;17.11;62.77
48204;BME280;33994;50.998;5.864;2023-07-13T01:20:11;100987.06;;;17.10;62.87
48204;BME280;33994;50.998;5.864;2023-07-13T01:23:15;100990.63;;;17.09;63.11
48204;BME280;33994;50.998;5.864;2023-07-13T01:26:18;100987.16;;;17.07;62.97
48204;BME280;33994;50.998;5.864;2023-07-13T01:29:22;100988.13;;;17.05;63.42
48204;BME280;33994;50.998;5.864;2023-07-13T01:32:25;100982.19;;;16.99;63.52
48204;BME280;33994;50.998;5.864;2023-07-13T01:35:28;100977.84;;;16.98;64.08
48204;BME280;33994;50.998;5.864;2023-07-13T01:38:32;100977.94;;;16.95;64.25
48204;BME280;33994;50.998;5.864;2023-07-13T01:41:35;100985.00;;;16.95;64.28
48204;BME280;33994;50.998;5.864;2023-07-13T01:44:39;100987.00;;;16.90;64.72
48204;BME280;33994;50.998;5.864;2023-07-13T01:47:42;100981.94;;;16.84;64.99
48204;BME280;33994;50.998;5.864;2023-07-13T01:50:45;100986.34;;;16.83;65.17
48204;BME280;33994;50.998;5.864;2023-07-13T01:53:50;100989.91;;;16.82;65.05
48204;BME280;33994;50.998;5.864;2023-07-13T01:56:53;100994.38;;;16.80;65.33
48204;BME280;33994;50.998;5.864;2023-07-13T01:59:56;100986.66;;;16.75;65.26
48204;BME280;33994;50.998;5.864;2023-07-13T02:02:59;100991.00;;;16.76;65.39
48204;BME280;33994;50.998;5.864;2023-07-13T02:06:02;100996.34;;;16.75;65.82
48204;BME280;33994;50.998;5.864;2023-07-13T02:09:07;100991.06;;;16.73;66.08
48204;BME280;33994;50.998;5.864;2023-07-13T02:12:10;100993.72;;;16.73;66.00
48204;BME280;33994;50.998;5.864;2023-07-13T02:15:13;100990.19;;;16.74;65.81
48204;BME280;33994;50.998;5.864;2023-07-13T02:18:17;100986.84;;;16.69;65.95
48204;BME280;33994;50.998;5.864;2023-07-13T02:21:20;100994.06;;;16.64;66.48
48204;BME280;33994;50.998;5.864;2023-07-13T02:24:24;101001.19;;;16.62;66.78
48204;BME280;33994;50.998;5.864;2023-07-13T02:27:27;101001.31;;;16.59;67.12
48204;BME280;33994;50.998;5.864;2023-07-13T02:30:30;100990.88;;;16.56;67.14
48204;BME280;33994;50.998;5.864;2023-07-13T02:33:34;101001.53;;;16.53;67.67
48204;BME280;33994;50.998;5.864;2023-07-13T02:36:37;101000.88;;;16.46;67.74
48204;BME280;33994;50.998;5.864;2023-07-13T02:39:42;101002.50;;;16.50;68.08
48204;BME280;33994;50.998;5.864;2023-07-13T02:42:45;101002.31;;;16.55;67.77
48204;BME280;33994;50.998;5.864;2023-07-13T02:45:48;101004.19;;;16.53;68.04
48204;BME280;33994;50.998;5.864;2023-07-13T02:48:51;101002.56;;;16.49;68.32
48204;BME280;33994;50.998;5.864;2023-07-13T02:51:55;100999.97;;;16.47;68.34
48204;BME280;33994;50.998;5.864;2023-07-13T02:54:59;101005.31;;;16.46;68.71
48204;BME280;33994;50.998;5.864;2023-07-13T02:58:02;101000.97;;;16.45;68.62
48204;BME280;33994;50.998;5.864;2023-07-13T03:01:06;101003.59;;;16.45;68.74
48204;BME280;33994;50.998;5.864;2023-07-13T03:04:10;101010.75;;;16.41;69.03
48204;BME280;33994;50.998;5.864;2023-07-13T03:07:13;101012.72;;;16.36;69.52
48204;BME280;33994;50.998;5.864;2023-07-13T03:10:17;101007.47;;;16.35;69.72
48204;BME280;33994;50.998;5.864;2023-07-13T03:13:21;101016.31;;;16.34;69.69
48204;BME280;33994;50.998;5.864;2023-07-13T03:16:24;101016.25;;;16.35;69.82
48204;BME280;33994;50.998;5.864;2023-07-13T03:19:27;101012.00;;;16.31;69.89
48204;BME280;33994;50.998;5.864;2023-07-13T03:22:30;101014.75;;;16.28;70.07
48204;BME280;33994;50.998;5.864;2023-07-13T03:25:35;101016.53;;;16.27;70.19
48204;BME280;33994;50.998;5.864;2023-07-13T03:28:39;101021.81;;;16.27;70.11
48204;BME280;33994;50.998;5.864;2023-07-13T03:31:43;101023.69;;;16.24;70.32
48204;BME280;33994;50.998;5.864;2023-07-13T03:34:46;101019.25;;;16.24;70.38
48204;BME280;33994;50.998;5.864;2023-07-13T03:37:49;101025.53;;;16.22;70.34
48204;BME280;33994;50.998;5.864;2023-07-13T03:40:54;101033.50;;;16.20;70.61
48204;BME280;33994;50.998;5.864;2023-07-13T03:43:57;101032.63;;;16.20;70.75
48204;BME280;33994;50.998;5.864;2023-07-13T03:47:00;101041.53;;;16.17;71.01
48204;BME280;33994;50.998;5.864;2023-07-13T03:50:04;101038.06;;;16.15;71.01
48204;BME280;33994;50.998;5.864;2023-07-13T03:53:07;101041.75;;;16.11;71.37
48204;BME280;33994;50.998;5.864;2023-07-13T03:56:13;101045.16;;;16.13;71.73
48204;BME280;33994;50.998;5.864;2023-07-13T03:59:16;101035.59;;;16.11;71.70
48204;BME280;33994;50.998;5.864;2023-07-13T04:02:19;101046.09;;;16.12;71.79
48204;BME280;33994;50.998;5.864;2023-07-13T04:05:22;101050.50;;;16.12;71.92
48204;BME280;33994;50.998;5.864;2023-07-13T04:08:27;101054.00;;;16.12;72.12
48204;BME280;33994;50.998;5.864;2023-07-13T04:11:32;101055.72;;;16.13;72.29
48204;BME280;33994;50.998;5.864;2023-07-13T04:14:35;101048.63;;;16.15;72.25
48204;BME280;33994;50.998;5.864;2023-07-13T04:17:39;101046.81;;;16.17;72.22
48204;BME280;33994;50.998;5.864;2023-07-13T04:20:42;101053.81;;;16.18;72.32
48204;BME280;33994;50.998;5.864;2023-07-13T04:23:45;101060.97;;;16.15;72.46
48204;BME280;33994;50.998;5.864;2023-07-13T04:26:49;101061.00;;;16.13;72.94
48204;BME280;33994;50.998;5.864;2023-07-13T04:29:53;101059.19;;;16.15;73.04
48204;BME280;33994;50.998;5.864;2023-07-13T04:32:56;101052.19;;;16.14;73.09
48204;BME280;33994;50.998;5.864;2023-07-13T04:35:59;101059.19;;;16.15;73.39
48204;BME280;33994;50.998;5.864;2023-07-13T04:39:03;101064.34;;;16.18;73.35
48204;BME280;33994;50.998;5.864;2023-07-13T04:42:08;101067.91;;;16.17;73.52
48204;BME280;33994;50.998;5.864;2023-07-13T04:45:12;101080.09;;;16.21;73.76
48204;BME280;33994;50.998;5.864;2023-07-13T04:48:15;101072.88;;;16.26;73.58
48204;BME280;33994;50.998;5.864;2023-07-13T04:51:19;101077.81;;;16.36;73.32
48204;BME280;33994;50.998;5.864;2023-07-13T04:54:22;101072.66;;;16.33;73.64
48204;BME280;33994;50.998;5.864;2023-07-13T04:57:27;101074.38;;;16.34;73.71
48204;BME280;33994;50.998;5.864;2023-07-13T05:00:31;101074.06;;;16.43;73.61
48204;BME280;33994;50.998;5.864;2023-07-13T05:03:34;101079.88;;;16.52;73.26
48204;BME280;33994;50.998;5.864;2023-07-13T05:06:38;101080.53;;;16.59;72.92
48204;BME280;33994;50.998;5.864;2023-07-13T05:09:41;101090.34;;;16.56;73.00
48204;BME280;33994;50.998;5.864;2023-07-13T05:12:46;101091.03;;;16.61;72.99
48204;BME280;33994;50.998;5.864;2023-07-13T05:15:56;101090.00;;;16.65;73.52
48204;BME280;33994;50.998;5.864;2023-07-13T05:18:59;101094.19;;;16.70;72.73
48204;BME280;33994;50.998;5.864;2023-07-13T05:22:03;101093.19;;;16.74;72.69
48204;BME280;33994;50.998;5.864;2023-07-13T05:25:07;101095.69;;;16.79;72.54
48204;BME280;33994;50.998;5.864;2023-07-13T05:28:11;101096.47;;;16.81;72.78
48204;BME280;33994;50.998;5.864;2023-07-13T05:31:15;101105.97;;;16.87;72.69
48204;BME280;33994;50.998;5.864;2023-07-13T05:34:18;101099.00;;;16.84;72.40
48204;BME280;33994;50.998;5.864;2023-07-13T05:37:21;101099.00;;;16.84;72.65
48204;BME280;33994;50.998;5.864;2023-07-13T05:40:25;101106.06;;;16.84;72.52
48204;BME280;33994;50.998;5.864;2023-07-13T05:43:29;101107.91;;;16.82;73.03
48204;BME280;33994;50.998;5.864;2023-07-13T05:46:32;101103.50;;;16.82;73.06
48204;BME280;33994;50.998;5.864;2023-07-13T05:49:35;101111.34;;;16.84;72.76
48204;BME280;33994;50.998;5.864;2023-07-13T05:52:39;101119.34;;;16.82;73.10
48204;BME280;33994;50.998;5.864;2023-07-13T05:55:42;101117.44;;;16.86;73.23
48204;BME280;33994;50.998;5.864;2023-07-13T05:58:47;101120.88;;;16.88;73.50
48204;BME280;33994;50.998;5.864;2023-07-13T06:01:50;101119.19;;;16.87;73.26
48204;BME280;33994;50.998;5.864;2023-07-13T06:04:53;101125.25;;;16.89;73.43
48204;BME280;33994;50.998;5.864;2023-07-13T06:07:57;101120.81;;;16.89;73.77
48204;BME280;33994;50.998;5.864;2023-07-13T06:11:04;101123.44;;;16.91;74.20
48204;BME280;33994;50.998;5.864;2023-07-13T06:14:08;101138.34;;;16.92;74.36
48204;BME280;33994;50.998;5.864;2023-07-13T06:17:11;101140.78;;;16.98;74.16
48204;BME280;33994;50.998;5.864;2023-07-13T06:20:15;101137.28;;;16.97;74.06
48204;BME280;33994;50.998;5.864;2023-07-13T06:23:18;101144.09;;;17.03;74.36
48204;BME280;33994;50.998;5.864;2023-07-13T06:26:21;101139.94;;;16.97;74.33
48204;BME280;33994;50.998;5.864;2023-07-13T06:29:26;101148.63;;;16.99;74.68
48204;BME280;33994;50.998;5.864;2023-07-13T06:32:29;101150.31;;;17.02;74.83
48204;BME280;33994;50.998;5.864;2023-07-13T06:35:32;101153.72;;;17.06;74.75
48204;BME280;33994;50.998;5.864;2023-07-13T06:38:35;101164.19;;;17.09;74.53
48204;BME280;33994;50.998;5.864;2023-07-13T06:41:38;101158.19;;;17.03;74.90
48204;BME280;33994;50.998;5.864;2023-07-13T06:44:43;101158.13;;;17.05;75.23
48204;BME280;33994;50.998;5.864;2023-07-13T06:47:46;101164.28;;;17.06;75.22
48204;BME280;33994;50.998;5.864;2023-07-13T06:50:50;101167.72;;;17.08;75.09
48204;BME280;33994;50.998;5.864;2023-07-13T06:53:53;101162.44;;;17.08;75.31
48204;BME280;33994;50.998;5.864;2023-07-13T06:56:57;101170.19;;;17.12;75.04
48204;BME280;33994;50.998;5.864;2023-07-13T07:00:02;101170.19;;;17.12;75.26
48204;BME280;33994;50.998;5.864;2023-07-13T07:03:05;101174.50;;;17.15;75.60
48204;BME280;33994;50.998;5.864;2023-07-13T07:06:13;101170.06;;;17.15;75.64
48204;BME280;33994;50.998;5.864;2023-07-13T07:09:17;101167.44;;;17.15;75.43
48204;BME280;33994;50.998;5.864;2023-07-13T07:12:20;101176.00;;;17.22;75.52
48204;BME280;33994;50.998;5.864;2023-07-13T07:15:25;101181.81;;;17.32;75.35
48204;BME280;33994;50.998;5.864;2023-07-13T07:18:28;101186.13;;;17.34;75.10
48204;BME280;33994;50.998;5.864;2023-07-13T07:21:31;101178.19;;;17.34;75.25
48204;BME280;33994;50.998;5.864;2023-07-13T07:24:35;101180.59;;;17.40;74.96
48204;BME280;33994;50.998;5.864;2023-07-13T07:27:38;101184.78;;;17.46;74.92
48204;BME280;33994;50.998;5.864;2023-07-13T07:30:43;101194.47;;;17.47;74.71
48204;BME280;33994;50.998;5.864;2023-07-13T07:33:46;101185.72;;;17.45;74.62
48204;BME280;33994;50.998;5.864;2023-07-13T07:36:49;101200.53;;;17.49;74.89
48204;BME280;33994;50.998;5.864;2023-07-13T07:39:53;101202.81;;;17.58;74.63
48204;BME280;33994;50.998;5.864;2023-07-13T07:42:56;101196.38;;;17.65;74.43
48204;BME280;33994;50.998;5.864;2023-07-13T07:46:01;101197.06;;;17.72;74.61
48204;BME280;33994;50.998;5.864;2023-07-13T07:49:04;101201.25;;;17.78;74.33
48204;BME280;33994;50.998;5.864;2023-07-13T07:52:08;101206.41;;;17.81;74.19
48204;BME280;33994;50.998;5.864;2023-07-13T07:55:11;101195.72;;;17.84;74.08
48204;BME280;33994;50.998;5.864;2023-07-13T07:58:16;101203.47;;;17.88;73.96
48204;BME280;33994;50.998;5.864;2023-07-13T08:01:20;101204.19;;;17.92;73.87
48204;BME280;33994;50.998;5.864;2023-07-13T08:04:23;101203.97;;;17.98;73.71
48204;BME280;33994;50.998;5.864;2023-07-13T08:07:27;101199.31;;;18.05;73.44
48204;BME280;33994;50.998;5.864;2023-07-13T08:10:30;101195.66;;;18.07;73.08
48204;BME280;33994;50.998;5.864;2023-07-13T08:13:33;101201.88;;;18.06;72.71
48204;BME280;33994;50.998;5.864;2023-07-13T08:18:51;101201.75;;;18.09;72.45
48204;BME280;33994;50.998;5.864;2023-07-13T08:21:54;101197.22;;;18.13;72.74
48204;BME280;33994;50.998;5.864;2023-07-13T08:24:58;101196.69;;;18.25;72.35
48204;BME280;33994;50.998;5.864;2023-07-13T08:28:03;101201.75;;;18.31;72.01
48204;BME280;33994;50.998;5.864;2023-07-13T08:31:07;101208.66;;;18.35;71.73
48204;BME280;33994;50.998;5.864;2023-07-13T08:34:12;101200.63;;;18.37;71.48
48204;BME280;33994;50.998;5.864;2023-07-13T08:37:15;101197.72;;;18.43;71.48
48204;BME280;33994;50.998;5.864;2023-07-13T08:40:23;101198.28;;;18.51;71.15
48204;BME280;33994;50.998;5.864;2023-07-13T08:43:30;101202.44;;;18.57;71.28
48204;BME280;33994;50.998;5.864;2023-07-13T08:46:35;101197.38;;;18.72;70.99
48204;BME280;33994;50.998;5.864;2023-07-13T08:49:40;101197.44;;;18.91;70.35
48204;BME280;33994;50.998;5.864;2023-07-13T08:52:46;101194.31;;;19.02;69.65
48204;BME280;33994;50.998;5.864;2023-07-13T08:55:51;101192.25;;;19.09;69.25
48204;BME280;33994;50.998;5.864;2023-07-13T08:59:05;101190.06;;;19.18;69.23
48204;BME280;33994;50.998;5.864;2023-07-13T09:02:23;101188.78;;;19.27;68.45
48204;BME280;33994;50.998;5.864;2023-07-13T09:05:32;101185.13;;;19.30;67.70
48204;BME280;33994;50.998;5.864;2023-07-13T09:08:46;101192.31;;;19.28;67.64
48204;BME280;33994;50.998;5.864;2023-07-13T09:11:58;101183.19;;;19.33;67.43
48204;BME280;33994;50.998;5.864;2023-07-13T09:15:17;101184.38;;;19.47;66.92
48204;BME280;33994;50.998;5.864;2023-07-13T09:18:26;101180.06;;;19.44;66.56
48204;BME280;33994;50.998;5.864;2023-07-13T09:21:34;101185.22;;;19.47;66.58
48204;BME280;33994;50.998;5.864;2023-07-13T09:24:54;101178.97;;;19.48;66.17
48204;BME280;33994;50.998;5.864;2023-07-13T09:28:00;101184.81;;;19.56;66.19
48204;BME280;33994;50.998;5.864;2023-07-13T09:31:07;101183.59;;;19.63;66.02
48204;BME280;33994;50.998;5.864;2023-07-13T09:34:14;101192.84;;;19.74;66.06
48204;BME280;33994;50.998;5.864;2023-07-13T09:37:20;101191.91;;;19.75;65.52
48204;BME280;33994;50.998;5.864;2023-07-13T09:40:40;101178.34;;;19.81;65.01
48204;BME280;33994;50.998;5.864;2023-07-13T09:44:02;101189.13;;;19.78;64.37
48204;BME280;33994;50.998;5.864;2023-07-13T09:47:16;101196.00;;;19.82;64.52
48204;BME280;33994;50.998;5.864;2023-07-13T09:50:19;101189.94;;;19.97;64.04
48204;BME280;33994;50.998;5.864;2023-07-13T09:53:24;101191.09;;;20.10;63.58
48204;BME280;33994;50.998;5.864;2023-07-13T09:56:33;101193.19;;;20.21;63.07
48204;BME280;33994;50.998;5.864;2023-07-13T09:59:43;101195.78;;;20.23;62.50
48204;BME280;33994;50.998;5.864;2023-07-13T10:02:58;101188.44;;;20.28;62.02
48204;BME280;33994;50.998;5.864;2023-07-13T10:06:11;101194.22;;;20.37;61.34
48204;BME280;33994;50.998;5.864;2023-07-13T10:09:17;101188.81;;;20.39;61.51
48204;BME280;33994;50.998;5.864;2023-07-13T10:12:21;101189.28;;;20.47;61.53
48204;BME280;33994;50.998;5.864;2023-07-13T10:15:25;101208.34;;;20.55;61.68
48204;BME280;33994;50.998;5.864;2023-07-13T10:18:29;101202.88;;;20.58;61.23
48204;BME280;33994;50.998;5.864;2023-07-13T10:21:38;101201.56;;;20.50;60.90
48204;BME280;33994;50.998;5.864;2023-07-13T10:24:43;101206.47;;;20.40;60.29
48204;BME280;33994;50.998;5.864;2023-07-13T10:27:47;101210.06;;;20.39;61.06
48204;BME280;33994;50.998;5.864;2023-07-13T10:30:52;101217.03;;;20.41;61.08
48204;BME280;33994;50.998;5.864;2023-07-13T10:33:57;101216.31;;;20.38;61.00
48204;BME280;33994;50.998;5.864;2023-07-13T10:37:01;101221.03;;;20.31;62.95
48204;BME280;33994;50.998;5.864;2023-07-13T10:40:13;101211.16;;;20.16;64.25
48204;BME280;33994;50.998;5.864;2023-07-13T10:43:20;101214.19;;;20.08;63.88
48204;BME280;33994;50.998;5.864;2023-07-13T10:46:27;101209.47;;;19.96;64.06
48204;BME280;33994;50.998;5.864;2023-07-13T10:49:32;101209.75;;;19.90;62.82
48204;BME280;33994;50.998;5.864;2023-07-13T10:52:46;101201.03;;;19.88;62.11
48204;BME280;33994;50.998;5.864;2023-07-13T10:55:59;101218.22;;;19.98;61.64
48204;BME280;33994;50.998;5.864;2023-07-13T10:59:11;101214.19;;;20.08;61.76
48204;BME280;33994;50.998;5.864;2023-07-13T11:02:22;101194.75;;;20.25;62.15
48204;BME280;33994;50.998;5.864;2023-07-13T11:05:29;101191.31;;;20.42;61.20
48204;BME280;33994;50.998;5.864;2023-07-13T11:08:35;101196.81;;;20.56;60.32
48204;BME280;33994;50.998;5.864;2023-07-13T11:11:40;101193.34;;;20.72;59.97
48204;BME280;33994;50.998;5.864;2023-07-13T11:15:01;101202.66;;;20.80;57.85
48204;BME280;33994;50.998;5.864;2023-07-13T11:18:20;101201.63;;;20.83;57.00
48204;BME280;33994;50.998;5.864;2023-07-13T11:21:26;101206.78;;;20.86;57.43
48204;BME280;33994;50.998;5.864;2023-07-13T11:24:48;101205.84;;;20.87;56.96
48204;BME280;33994;50.998;5.864;2023-07-13T11:28:06;101202.09;;;20.91;56.98
48204;BME280;33994;50.998;5.864;2023-07-13T11:31:14;101195.34;;;21.01;56.68
48204;BME280;33994;50.998;5.864;2023-07-13T11:34:23;101187.84;;;21.09;56.65
48204;BME280;33994;50.998;5.864;2023-07-13T11:37:30;101190.19;;;21.16;56.80
48204;BME280;33994;50.998;5.864;2023-07-13T11:40:34;101201.41;;;21.21;56.63
48204;BME280;33994;50.998;5.864;2023-07-13T11:43:38;101196.03;;;21.22;56.45
48204;BME280;33994;50.998;5.864;2023-07-13T11:46:45;101190.38;;;21.28;55.99
48204;BME280;33994;50.998;5.864;2023-07-13T11:49:50;101186.13;;;21.42;55.51
48204;BME280;33994;50.998;5.864;2023-07-13T11:52:54;101187.09;;;21.56;55.03
48204;BME280;33994;50.998;5.864;2023-07-13T11:55:58;101197.31;;;21.64;53.97
48204;BME280;33994;50.998;5.864;2023-07-13T11:59:07;101188.63;;;21.60;52.93
48204;BME280;33994;50.998;5.864;2023-07-13T12:02:16;101190.34;;;21.61;53.54
48204;BME280;33994;50.998;5.864;2023-07-13T12:11:00;101194.38;;;21.69;53.72
48204;BME280;33994;50.998;5.864;2023-07-13T12:14:05;101204.69;;;21.75;54.26
48204;BME280;33994;50.998;5.864;2023-07-13T12:17:18;101187.19;;;22.02;53.54
48204;BME280;33994;50.998;5.864;2023-07-13T12:20:25;101196.13;;;22.47;52.62
48204;BME280;33994;50.998;5.864;2023-07-13T12:23:30;101198.25;;;22.56;52.94
48204;BME280;33994;50.998;5.864;2023-07-13T12:26:34;101198.81;;;22.47;54.04
48204;BME280;33994;50.998;5.864;2023-07-13T12:29:38;101208.00;;;22.42;54.11
48204;BME280;33994;50.998;5.864;2023-07-13T12:32:41;101211.47;;;22.28;53.11
48204;BME280;33994;50.998;5.864;2023-07-13T12:35:47;101209.94;;;22.24;51.99
48204;BME280;33994;50.998;5.864;2023-07-13T12:38:51;101201.44;;;22.17;51.19
48204;BME280;33994;50.998;5.864;2023-07-13T12:42:13;101201.88;;;22.09;49.29
48204;BME280;33994;50.998;5.864;2023-07-13T12:45:21;101201.47;;;22.01;49.65
48204;BME280;33994;50.998;5.864;2023-07-13T12:48:25;101195.16;;;21.86;50.53
48204;BME280;33994;50.998;5.864;2023-07-13T12:51:28;101191.25;;;21.94;51.49
48204;BME280;33994;50.998;5.864;2023-07-13T12:54:31;101188.47;;;21.95;51.12
48204;BME280;33994;50.998;5.864;2023-07-13T12:57:39;101190.88;;;22.00;50.84
48204;BME280;33994;50.998;5.864;2023-07-13T13:00:49;101195.78;;;22.07;51.15
48204;BME280;33994;50.998;5.864;2023-07-13T13:03:53;101190.94;;;22.14;50.58
48204;BME280;33994;50.998;5.864;2023-07-13T13:07:04;101192.94;;;22.10;50.23
48204;BME280;33994;50.998;5.864;2023-07-13T13:10:12;101194.66;;;22.11;50.17
48204;BME280;33994;50.998;5.864;2023-07-13T13:13:15;101191.22;;;22.09;49.89
48204;BME280;33994;50.998;5.864;2023-07-13T13:16:22;101188.03;;;22.19;50.18
48204;BME280;33994;50.998;5.864;2023-07-13T13:19:27;101193.97;;;22.24;49.66
48204;BME280;33994;50.998;5.864;2023-07-13T13:22:30;101185.69;;;22.28;48.85
48204;BME280;33994;50.998;5.864;2023-07-13T13:25:34;101187.63;;;22.41;48.05
48204;BME280;33994;50.998;5.864;2023-07-13T13:28:36;101189.84;;;22.48;47.42
48204;BME280;33994;50.998;5.864;2023-07-13T13:31:41;101194.66;;;22.42;46.75
48204;BME280;33994;50.998;5.864;2023-07-13T13:34:44;101192.88;;;22.42;47.59
48204;BME280;33994;50.998;5.864;2023-07-13T13:37:48;101190.19;;;22.42;47.71
48204;BME280;33994;50.998;5.864;2023-07-13T13:40:50;101192.69;;;22.45;48.61
48204;BME280;33994;50.998;5.864;2023-07-13T13:43:53;101196.81;;;22.51;48.05
48204;BME280;33994;50.998;5.864;2023-07-13T13:46:58;101188.59;;;22.54;47.57
48204;BME280;33994;50.998;5.864;2023-07-13T13:50:01;101201.25;;;22.50;47.71
48204;BME280;33994;50.998;5.864;2023-07-13T13:53:05;101200.78;;;22.44;47.30
48204;BME280;33994;50.998;5.864;2023-07-13T13:56:08;101203.78;;;22.38;47.95
48204;BME280;33994;50.998;5.864;2023-07-13T13:59:12;101201.50;;;22.31;47.41
48204;BME280;33994;50.998;5.864;2023-07-13T14:02:22;101203.03;;;22.20;47.36
48204;BME280;33994;50.998;5.864;2023-07-13T14:05:26;101206.66;;;22.19;47.49
48204;BME280;33994;50.998;5.864;2023-07-13T14:08:29;101207.97;;;22.11;46.79
48204;BME280;33994;50.998;5.864;2023-07-13T14:11:32;101235.03;;;22.04;47.73
48204;BME280;33994;50.998;5.864;2023-07-13T14:14:35;101235.69;;;21.76;50.56
48204;BME280;33994;50.998;5.864;2023-07-13T14:17:40;101245.44;;;21.44;52.89
48204;BME280;33994;50.998;5.864;2023-07-13T14:20:43;101241.56;;;21.16;54.57
48204;BME280;33994;50.998;5.864;2023-07-13T14:23:47;101251.19;;;20.84;55.89
48204;BME280;33994;50.998;5.864;2023-07-13T14:26:51;101254.75;;;20.48;57.07
48204;BME280;33994;50.998;5.864;2023-07-13T14:29:54;101266.69;;;20.21;57.77
48204;BME280;33994;50.998;5.864;2023-07-13T14:32:59;101267.75;;;19.99;58.76
48204;BME280;33994;50.998;5.864;2023-07-13T14:36:02;101273.59;;;19.87;59.27
48204;BME280;33994;50.998;5.864;2023-07-13T14:39:12;101273.09;;;19.79;60.04
48204;BME280;33994;50.998;5.864;2023-07-13T14:42:15;101278.63;;;19.74;59.93
48204;BME280;33994;50.998;5.864;2023-07-13T14:45:20;101277.31;;;19.83;60.13
48204;BME280;33994;50.998;5.864;2023-07-13T14:48:24;101278.91;;;19.87;60.20
48204;BME280;33994;50.998;5.864;2023-07-13T14:51:28;101276.97;;;19.90;59.92
48204;BME280;33994;50.998;5.864;2023-07-13T14:54:31;101274.25;;;19.92;59.65
48204;BME280;33994;50.998;5.864;2023-07-13T14:57:34;101280.44;;;19.92;59.54
48204;BME280;33994;50.998;5.864;2023-07-13T15:00:37;101273.53;;;19.88;59.42
48204;BME280;33994;50.998;5.864;2023-07-13T15:03:47;101279.06;;;19.84;59.48
48204;BME280;33994;50.998;5.864;2023-07-13T15:06:53;101269.59;;;19.78;59.09
48204;BME280;33994;50.998;5.864;2023-07-13T15:09:56;101274.25;;;19.73;58.74
48204;BME280;33994;50.998;5.864;2023-07-13T15:13:01;101270.88;;;19.69;58.54
48204;BME280;33994;50.998;5.864;2023-07-13T15:16:16;101268.13;;;19.71;58.65
48204;BME280;33994;50.998;5.864;2023-07-13T15:19:22;101272.47;;;19.74;57.84
48204;BME280;33994;50.998;5.864;2023-07-13T15:22:26;101269.88;;;19.72;57.72
48204;BME280;33994;50.998;5.864;2023-07-13T15:25:31;101266.06;;;19.78;57.50
48204;BME280;33994;50.998;5.864;2023-07-13T15:28:34;101261.34;;;19.84;57.33
48204;BME280;33994;50.998;5.864;2023-07-13T15:31:38;101259.97;;;19.94;57.07
48204;BME280;33994;50.998;5.864;2023-07-13T15:34:43;101265.13;;;19.98;56.24
48204;BME280;33994;50.998;5.864;2023-07-13T15:37:46;101255.94;;;20.05;56.19
48204;BME280;33994;50.998;5.864;2023-07-13T15:40:50;101255.44;;;20.15;56.11
48204;BME280;33994;50.998;5.864;2023-07-13T15:43:56;101247.00;;;20.25;56.01
48204;BME280;33994;50.998;5.864;2023-07-13T15:47:00;101242.16;;;20.34;55.77
48204;BME280;33994;50.998;5.864;2023-07-13T15:50:07;101245.16;;;20.46;55.52
48204;BME280;33994;50.998;5.864;2023-07-13T15:53:15;101241.97;;;20.56;55.59
48204;BME280;33994;50.998;5.864;2023-07-13T15:56:23;101247.75;;;20.64;55.68
48204;BME280;33994;50.998;5.864;2023-07-13T15:59:26;101239.63;;;20.68;55.45
48204;BME280;33994;50.998;5.864;2023-07-13T16:02:29;101236.03;;;20.69;55.47
48204;BME280;33994;50.998;5.864;2023-07-13T16:05:34;101242.91;;;20.73;55.44
48204;BME280;33994;50.998;5.864;2023-07-13T16:08:37;101232.88;;;20.78;55.40
48204;BME280;33994;50.998;5.864;2023-07-13T16:11:40;101228.38;;;20.80;55.58
48204;BME280;33994;50.998;5.864;2023-07-13T16:14:43;101223.06;;;20.80;55.47